createdAt,value
2023-05-22T00:00:02.299Z,135.42
2023-05-22T00:15:02.890Z,135.42
2023-05-22T00:30:02.246Z,135.42
2023-05-22T00:45:01.946Z,135.42
2023-05-22T01:00:02.572Z,135.42
2023-05-22T01:15:03.103Z,135.42
2023-05-22T01:30:01.605Z,135.42
2023-05-22T01:45:02.226Z,135.42
2023-05-22T02:00:02.780Z,135.42
2023-05-22T02:15:01.413Z,135.42
2023-05-22T02:30:01.784Z,135.42
2023-05-22T02:45:02.444Z,135.42
2023-05-22T03:00:01.507Z,135.42
2023-05-22T03:15:01.738Z,135.42
2023-05-22T03:30:02.084Z,135.42
2023-05-22T03:45:01.853Z,135.42
2023-05-22T04:00:02.422Z,135.42
2023-05-22T04:15:01.715Z,135.42
2023-05-22T04:30:02.097Z,135.42
2023-05-22T04:45:02.005Z,135.42
2023-05-22T05:00:02.610Z,135.42
2023-05-22T05:15:01.620Z,135.42
2023-05-22T05:30:01.985Z,135.42
2023-05-22T05:45:02.266Z,135.42
2023-05-22T06:00:02.577Z,135.42
2023-05-22T06:15:01.566Z,135.42
2023-05-22T06:30:01.922Z,135.42
2023-05-22T06:45:02.261Z,135.42
2023-05-22T07:00:02.736Z,135.42
2023-05-22T07:15:01.653Z,135.42
2023-05-22T07:30:02.028Z,135.42
2023-05-22T07:45:02.547Z,135.42
2023-05-22T08:00:02.797Z,135.42
2023-05-22T08:15:01.652Z,135.42
2023-05-22T08:30:02.012Z,135.42
2023-05-22T08:45:01.680Z,135.42
2023-05-22T09:00:02.801Z,135.42
2023-05-22T09:15:02.249Z,135.42
2023-05-22T09:30:01.493Z,135.42
2023-05-22T09:45:01.834Z,135.42
2023-05-22T10:00:02.224Z,135.42
2023-05-22T10:15:02.042Z,135.42
2023-05-22T10:30:02.225Z,135.42
2023-05-22T10:45:02.253Z,33.7
2023-05-22T11:00:02.156Z,36.63
2023-05-22T11:15:01.673Z,31.77
2023-05-22T11:30:01.912Z,35.29
2023-05-22T11:45:02.243Z,45.21
2023-05-22T12:00:01.633Z,50.79
2023-05-22T12:15:01.565Z,52.33
2023-05-22T12:30:01.914Z,56.6
2023-05-22T12:45:02.670Z,56.26
2023-05-22T13:00:02.579Z,52.33
2023-05-22T13:15:02.395Z,51.44
2023-05-22T13:30:02.304Z,52.9
2023-05-22T13:45:01.600Z,51.81
2023-05-22T14:00:01.986Z,51.81
2023-05-22T14:15:02.076Z,53.1
2023-05-22T14:30:02.276Z,53.1
2023-05-22T14:45:02.652Z,53.1
2023-05-22T15:00:03.028Z,53.1
2023-05-22T15:15:02.002Z,53.1
2023-05-22T15:30:01.774Z,53.1
2023-05-22T15:45:02.228Z,57.67
2023-05-22T16:00:02.341Z,57.67
2023-05-22T16:15:02.400Z,57.67
2023-05-22T16:30:01.810Z,57.67
2023-05-22T16:45:02.059Z,57.67
2023-05-22T17:00:01.729Z,57.67
2023-05-22T17:15:02.135Z,57.67
2023-05-22T17:30:02.652Z,57.67
2023-05-22T17:45:01.309Z,57.67
2023-05-22T18:00:01.675Z,57.67
2023-05-22T18:15:01.847Z,57.67
2023-05-22T18:30:02.096Z,57.67
2023-05-22T18:45:03.001Z,57.67
2023-05-22T19:00:01.991Z,57.67
2023-05-22T19:15:02.187Z,57.67
2023-05-22T19:30:02.785Z,57.67
2023-05-22T19:45:02.136Z,57.67
2023-05-22T20:00:01.757Z,57.67
2023-05-22T20:15:02.353Z,57.67
2023-05-22T20:30:01.774Z,57.67
2023-05-22T20:45:03.017Z,98.39
2023-05-22T21:00:01.534Z,98.39
2023-05-22T21:15:01.774Z,98.39
2023-05-22T21:30:03.112Z,98.39
2023-05-22T21:45:01.496Z,98.39
2023-05-22T22:00:01.916Z,98.39
2023-05-22T22:15:01.461Z,98.39
2023-05-22T22:30:01.809Z,98.39
2023-05-22T22:45:02.156Z,98.39
2023-05-22T23:00:02.323Z,98.39
2023-05-22T23:15:01.773Z,98.39
2023-05-22T23:30:01.753Z,98.39
2023-05-22T23:45:02.058Z,98.39
